Time;durP1;ratioP1;P1;durP2;ratioP2;P2;SDS_P1;SDS_P2;PMS_P1;PMS_P2;Temp;Humidity;BMP_temperature;BMP_pressure;BME280_temperature;BME280_humidity;BME280_pressure;Samples;Min_cycle;Max_cycle;Signal;HPM_P1;HPM_P2
2022/11/29 00:01:41;;;;;;;1.90;0.25;;;7.60;99.90;;;;;;5041539;28;20044;-90
2022/11/29 00:04:06;;;;;;;0.90;0.57;;;7.70;99.90;;;;;;5041089;28;20052;-90
2022/11/29 00:06:35;;;;;;;0.10;0.10;;;7.70;99.90;;;;;;5024316;28;20487;-89
2022/11/29 00:09:13;;;;;;;0.45;0.45;;;7.70;99.90;;;;;;5057390;28;20368;-90
2022/11/29 00:14:26;;;;;;;0.30;0.30;;;7.70;99.90;;;;;;5058224;28;20053;-90
2022/11/29 00:16:54;;;;;;;0.57;0.57;;;8.90;99.90;;;;;;5058267;28;20036;-89
2022/11/29 00:19:20;;;;;;;2.90;0.25;;;7.70;99.90;;;;;;5057615;28;20044;-90
2022/11/29 00:21:51;;;;;;;0.88;0.10;;;7.70;99.90;;;;;;5058232;28;20048;-90
2022/11/29 00:24:19;;;;;;;0.10;0.10;;;7.60;99.90;;;;;;5041062;28;20040;-90
2022/11/29 00:26:45;;;;;;;1.23;0.30;;;7.60;99.90;;;;;;5041375;28;20059;-90
2022/11/29 00:29:14;;;;;;;0.80;0.20;;;6.60;99.90;;;;;;5040928;28;20087;-89
2022/11/29 00:31:43;;;;;;;0.28;0.08;;;7.60;99.90;;;;;;5041333;28;20131;-90
2022/11/29 00:34:12;;;;;;;0.22;0.20;;;7.50;99.90;;;;;;5057559;28;20044;-90
2022/11/29 00:36:38;;;;;;;0.30;0.30;;;8.70;99.90;;;;;;5024771;28;20050;-90
2022/11/29 00:39:15;;;;;;;;;;;;;;;;;;;;;
2022/11/29 00:41:46;;;;;;;0.70;0.30;;;6.50;99.90;;;;;;5057563;28;20059;-90
2022/11/29 00:44:18;;;;;;;0.10;0.10;;;7.50;99.90;;;;;;5056985;28;20111;-89
2022/11/29 00:46:43;;;;;;;0.47;0.30;;;8.30;99.90;;;;;;5040689;28;20099;-90
2022/11/29 00:49:09;;;;;;;0.43;0.23;;;7.60;99.90;;;;;;5039968;28;20056;-90
2022/11/29 00:51:38;;;;;;;0.37;0.10;;;7.60;99.90;;;;;;5040265;28;20067;-90
2022/11/29 00:54:04;;;;;;;1.35;0.47;;;6.80;99.90;;;;;;5040491;28;20052;-90
2022/11/29 00:56:35;;;;;;;0.63;0.30;;;7.50;99.90;;;;;;5040585;28;20494;-90
2022/11/29 00:59:03;;;;;;;0.30;0.20;;;7.50;99.90;;;;;;5056771;28;20139;-90
2022/11/29 01:01:29;;;;;;;0.43;0.28;;;7.60;99.90;;;;;;5040667;28;20044;-90
2022/11/29 01:03:59;;;;;;;0.00;0.00;;;7.50;99.90;;;;;;5057019;28;20475;-90
2022/11/29 01:06:25;;;;;;;0.10;0.10;;;7.60;99.90;;;;;;5040388;28;20094;-90
2022/11/29 01:08:56;;;;;;;0.30;0.30;;;7.60;99.90;;;;;;5039995;28;20048;-90
2022/11/29 01:11:27;;;;;;;0.00;0.00;;;8.60;99.90;;;;;;5039998;28;20106;-90
2022/11/29 01:13:56;;;;;;;0.10;0.10;;;6.80;99.90;;;;;;5040192;28;20083;-90
2022/11/29 01:16:32;;;;;;;0.22;0.22;;;7.60;99.90;;;;;;5039674;28;20127;-89
2022/11/29 01:19:00;;;;;;;0.22;0.20;;;7.60;99.90;;;;;;5056821;28;20051;-90
2022/11/29 01:21:38;;;;;;;;;;;;;;;;;;;;;
2022/11/29 01:24:16;;;;;;;0.00;0.00;;;7.60;99.90;;;;;;5056371;28;20442;-90
2022/11/29 01:26:42;;;;;;;2.67;0.50;;;7.50;99.90;;;;;;5023944;28;20041;-90
2022/11/29 01:29:13;;;;;;;1.00;0.23;;;7.60;99.90;;;;;;5056054;28;20139;-90
2022/11/29 01:31:44;;;;;;;0.75;0.60;;;7.60;99.90;;;;;;5056338;28;20553;-90
2022/11/29 01:34:10;;;;;;;2.30;0.47;;;6.70;99.90;;;;;;5039288;28;20040;-90
2022/11/29 01:36:38;;;;;;;0.40;0.30;;;7.60;99.90;;;;;;5039821;28;20071;-90
2022/11/29 01:39:07;;;;;;;0.50;0.40;;;7.50;99.90;;;;;;5039359;28;20095;-89
2022/11/29 01:41:37;;;;;;;0.75;0.43;;;6.80;99.90;;;;;;5039689;28;20135;-90
2022/11/29 01:44:34;;;;;;;0.43;0.30;;;7.60;99.90;;;;;;5039499;28;20051;-90
2022/11/29 01:47:05;;;;;;;0.23;0.07;;;7.50;99.90;;;;;;5039237;28;20086;-90
2022/11/29 01:49:41;;;;;;;0.30;0.10;;;7.50;99.90;;;;;;5039287;28;20295;-90
2022/11/29 01:52:18;;;;;;;0.00;0.00;;;7.50;99.90;;;;;;5038747;28;20052;-89
2022/11/29 01:54:49;;;;;;;0.03;0.00;;;7.50;99.90;;;;;;5055957;28;20139;-90
2022/11/29 01:57:18;;;;;;;0.80;0.40;;;8.90;99.90;;;;;;5038731;28;20148;-90
2022/11/29 01:59:49;;;;;;;0.50;0.20;;;7.50;99.90;;;;;;5038209;28;20051;-89
2022/11/29 02:02:28;;;;;;;2.38;0.30;;;7.80;99.90;;;;;;5039142;28;20048;-89
2022/11/29 02:04:54;;;;;;;1.77;0.20;;;7.40;99.90;;;;;;5039244;28;20076;-90
2022/11/29 02:07:27;;;;;;;0.17;0.10;;;7.50;99.90;;;;;;5055408;28;20135;-90
2022/11/29 02:10:03;;;;;;;0.10;0.10;;;7.40;99.90;;;;;;5055405;28;20442;-89
2022/11/29 02:12:53;;;;;;;0.00;0.00;;;7.60;99.90;;;;;;5039498;28;20036;-90
2022/11/29 02:15:37;;;;;;;0.10;0.10;;;7.50;99.90;;;;;;5054677;28;20139;-90
2022/11/29 02:18:14;;;;;;;1.33;0.57;;;7.50;99.90;;;;;;5039163;28;20055;-89
2022/11/29 02:21:26;;;;;;;0.05;0.05;;;7.50;99.90;;;;;;5039314;28;20045;-90
2022/11/29 02:24:11;;;;;;;;;;;7.40;99.90;;;;;;5039308;28;20127;-90
2022/11/29 02:27:08;;;;;;;0.98;0.10;;;7.60;99.90;;;;;;5055405;28;20347;-90
2022/11/29 02:29:40;;;;;;;0.10;0.10;;;7.50;99.90;;;;;;5037086;28;20048;-90
2022/11/29 02:32:30;;;;;;;0.32;0.20;;;7.50;99.90;;;;;;5055414;28;20040;-90
2022/11/29 02:35:15;;;;;;;0.05;0.05;;;7.50;99.90;;;;;;5055100;28;20104;-90
2022/11/29 02:38:02;;;;;;;0.22;0.20;;;7.40;99.90;;;;;;5055364;28;20056;-90
2022/11/29 02:40:40;;;;;;;0.38;0.38;;;7.40;99.90;;;;;;5054730;28;20056;-90
2022/11/29 02:43:36;;;;;;;0.10;0.10;;;7.40;99.90;;;;;;5055167;28;20051;-89
2022/11/29 02:46:16;;;;;;;0.45;0.22;;;7.40;99.90;;;;;;5038655;28;20138;-90
2022/11/29 02:48:54;;;;;;;0.57;0.30;;;7.40;99.90;;;;;;5038307;28;20128;-90
2022/11/29 02:51:41;;;;;;;0.28;0.28;;;7.40;99.90;;;;;;5037676;28;20044;-90
2022/11/29 02:54:16;;;;;;;0.03;0.00;;;7.40;99.90;;;;;;5038235;28;20048;-90
2022/11/29 02:56:50;;;;;;;0.17;0.17;;;7.40;99.90;;;;;;5054892;28;20135;-90
2022/11/29 02:59:30;;;;;;;0.75;0.38;;;7.40;99.90;;;;;;5038121;28;20059;-89
2022/11/29 03:02:08;;;;;;;0.43;0.43;;;7.40;99.90;;;;;;5038590;28;20051;-90
2022/11/29 03:05:01;;;;;;;0.10;0.08;;;7.40;99.90;;;;;;5038516;28;20524;-90
2022/11/29 03:07:36;;;;;;;0.77;0.35;;;7.40;99.90;;;;;;5038105;28;20127;-90
2022/11/29 03:10:17;;;;;;;0.10;0.10;;;7.40;99.90;;;;;;5038181;28;20040;-90
2022/11/29 03:12:46;;;;;;;0.28;0.25;;;7.40;99.90;;;;;;5037764;28;20103;-90
2022/11/29 03:15:32;;;;;;;0.55;0.40;;;7.30;99.90;;;;;;5038312;28;20048;-90
2022/11/29 03:18:25;;;;;;;1.55;0.57;;;7.30;99.90;;;;;;5054985;28;20048;-90
2022/11/29 03:21:07;;;;;;;0.47;0.35;;;7.30;99.90;;;;;;5038132;28;20092;-90
2022/11/29 03:23:44;;;;;;;0.00;0.00;;;7.30;99.90;;;;;;5037976;28;20078;-90
2022/11/29 03:26:14;;;;;;;0.15;0.08;;;7.30;99.90;;;;;;5038086;28;20044;-90
2022/11/29 03:29:06;;;;;;;0.63;0.10;;;7.30;99.90;;;;;;5057870;28;20520;-90
2022/11/29 03:31:44;;;;;;;0.60;0.45;;;7.20;99.90;;;;;;5041790;28;20052;-90
2022/11/29 03:34:51;;;;;;;0.55;0.22;;;7.30;99.90;;;;;;5058582;28;20059;-90
2022/11/29 03:37:26;;;;;;;2.65;0.55;;;7.30;99.90;;;;;;5041593;28;20052;-90
2022/11/29 03:40:10;;;;;;;1.35;0.20;;;7.30;99.90;;;;;;5041992;28;20041;-90
2022/11/29 03:42:56;;;;;;;3.72;0.55;;;7.30;99.90;;;;;;5057995;28;20139;-90
2022/11/29 03:45:42;;;;;;;0.60;0.45;;;7.20;99.90;;;;;;5041840;28;20049;-90
2022/11/29 03:48:14;;;;;;;1.45;0.20;;;7.20;99.90;;;;;;5041969;28;20056;-90
2022/11/29 03:51:10;;;;;;;1.27;0.00;;;7.30;99.90;;;;;;5041080;28;20047;-90
2022/11/29 03:53:50;;;;;;;0.93;0.22;;;7.20;99.90;;;;;;5052995;28;20048;-90
2022/11/29 03:56:33;;;;;;;2.35;0.40;;;7.20;99.90;;;;;;5040400;28;20053;-90
2022/11/29 03:59:23;;;;;;;0.43;0.17;;;7.20;99.90;;;;;;5056917;28;20483;-90
2022/11/29 04:02:10;;;;;;;0.43;0.40;;;7.20;99.90;;;;;;5055881;28;20045;-90
2022/11/29 04:05:12;;;;;;;0.27;0.13;;;7.10;99.90;;;;;;5039797;28;20048;-90
2022/11/29 04:08:03;;;;;;;0.00;0.00;;;7.10;99.90;;;;;;5056511;28;20337;-90
2022/11/29 04:10:50;;;;;;;0.95;0.35;;;7.10;99.90;;;;;;5039646;28;20050;-89
2022/11/29 04:13:30;;;;;;;0.30;0.17;;;7.10;99.90;;;;;;5040354;28;20063;-90
2022/11/29 04:16:17;;;;;;;0.45;0.20;;;7.10;99.90;;;;;;5039658;28;20057;-90
2022/11/29 04:19:23;;;;;;;0.50;0.45;;;7.10;99.90;;;;;;5039446;28;20048;-90
2022/11/29 04:22:20;;;;;;;0.30;0.10;;;7.10;99.90;;;;;;5066410;28;20059;-90
2022/11/29 04:24:46;;;;;;;0.35;0.35;;;7.00;99.90;;;;;;5039547;28;20047;-90
2022/11/29 04:27:29;;;;;;;0.20;0.20;;;7.70;99.90;;;;;;5056592;28;20048;-90
2022/11/29 04:30:16;;;;;;;0.40;0.40;;;7.00;99.90;;;;;;5056224;28;20052;-90
2022/11/29 04:33:04;;;;;;;1.13;0.30;;;6.90;99.90;;;;;;5039331;28;20037;-90
2022/11/29 04:35:51;;;;;;;0.25;0.25;;;5.60;99.90;;;;;;5056030;28;20056;-89
2022/11/29 04:38:54;;;;;;;1.13;0.20;;;6.90;99.90;;;;;;5055954;28;20083;-90
2022/11/29 04:41:30;;;;;;;0.10;0.10;;;6.90;99.90;;;;;;5056263;28;20403;-89
2022/11/29 04:44:16;;;;;;;0.30;0.23;;;6.90;99.90;;;;;;5056116;28;20060;-90
2022/11/29 04:47:30;;;;;;;0.13;0.10;;;6.90;99.90;;;;;;5055719;28;20487;-89
2022/11/29 04:50:08;;;;;;;0.03;0.03;;;7.20;99.90;;;;;;5052055;28;20061;-90
2022/11/29 04:53:01;;;;;;;0.55;0.28;;;6.90;99.90;;;;;;4964070;28;2161577;-89
2022/11/29 04:55:42;;;;;;;1.75;0.20;;;6.80;99.90;;;;;;5040936;28;20052;-89
2022/11/29 04:58:39;;;;;;;0.20;0.10;;;6.90;99.90;;;;;;5057787;28;20399;-89
2022/11/29 05:01:34;;;;;;;0.20;0.10;;;6.90;99.90;;;;;;5040666;28;20044;-89
2022/11/29 05:04:06;;;;;;;0.20;0.20;;;6.80;99.90;;;;;;5040087;28;20083;-90
2022/11/29 05:06:39;;;;;;;0.13;0.10;;;6.90;99.90;;;;;;5057072;28;20084;-89
2022/11/29 05:09:18;;;;;;;1.65;0.52;;;6.90;99.90;;;;;;5040341;28;20064;-90
2022/11/29 05:12:22;;;;;;;1.55;0.47;;;6.80;99.90;;;;;;5039961;28;20122;-90
2022/11/29 05:15:17;;;;;;;1.20;0.40;;;6.90;99.90;;;;;;5017893;28;20067;-90
2022/11/29 05:18:05;;;;;;;1.45;0.15;;;6.80;99.90;;;;;;5037648;28;20434;-89
2022/11/29 05:20:51;;;;;;;0.20;0.15;;;6.90;99.90;;;;;;5040327;28;20052;-90
2022/11/29 05:23:37;;;;;;;1.02;0.20;;;8.00;99.90;;;;;;5032704;28;20063;-90
2022/11/29 05:26:11;;;;;;;0.20;0.20;;;6.80;99.90;;;;;;5056596;28;20075;-89
2022/11/29 05:28:49;;;;;;;0.95;0.32;;;6.80;99.90;;;;;;5039353;28;20394;-90
2022/11/29 05:31:46;;;;;;;0.70;0.20;;;6.80;99.90;;;;;;5055687;28;20087;-90
2022/11/29 05:34:27;;;;;;;0.17;0.17;;;6.80;99.90;;;;;;5039804;28;20151;-89
2022/11/29 05:36:59;;;;;;;0.45;0.45;;;6.80;99.90;;;;;;5039165;28;20049;-89
2022/11/29 05:39:51;;;;;;;0.20;0.20;;;6.80;99.90;;;;;;5055836;28;20471;-89
2022/11/29 05:42:35;;;;;;;0.20;0.20;;;6.80;99.90;;;;;;5039660;28;20054;-90
2022/11/29 05:45:06;;;;;;;0.32;0.32;;;6.70;99.90;;;;;;5055798;28;20091;-90
2022/11/29 05:47:46;;;;;;;0.57;0.40;;;6.70;99.90;;;;;;5038850;28;20048;-90
2022/11/29 05:50:27;;;;;;;0.00;0.00;;;6.70;99.90;;;;;;5038515;28;20091;-90
2022/11/29 05:53:11;;;;;;;0.55;0.55;;;6.70;99.90;;;;;;5038635;28;20057;-89
2022/11/29 05:55:50;;;;;;;0.55;0.32;;;6.70;99.90;;;;;;5039747;28;20052;-89
2022/11/29 05:58:43;;;;;;;0.10;0.10;;;6.70;99.90;;;;;;5039317;28;20061;-90
2022/11/29 06:01:15;;;;;;;0.08;0.08;;;6.70;99.90;;;;;;5039237;28;20071;-89
2022/11/29 06:03:57;;;;;;;0.20;0.00;;;6.70;99.90;;;;;;5055663;28;20054;-89
2022/11/29 06:06:32;;;;;;;0.38;0.38;;;6.60;99.90;;;;;;5055597;28;20036;-90
2022/11/29 06:09:22;;;;;;;0.65;0.17;;;6.70;99.90;;;;;;5055899;28;20407;-89
2022/11/29 06:11:58;;;;;;;0.32;0.32;;;6.60;99.90;;;;;;5038665;28;20106;-89
2022/11/29 06:15:02;;;;;;;0.55;0.43;;;6.60;99.90;;;;;;5055728;28;20090;-89
2022/11/29 06:17:47;;;;;;;0.65;0.65;;;6.60;99.90;;;;;;5039937;28;20483;-88
2022/11/29 06:20:40;;;;;;;0.20;0.20;;;6.60;99.90;;;;;;5057164;28;20091;-96
2022/11/29 06:23:56;;;;;;;0.13;0.13;;;6.60;99.90;;;;;;5038803;28;20052;-93
2022/11/29 06:26:47;;;;;;;;;;;;;;;;;;;;;
2022/11/29 06:29:45;;;;;;;0.20;0.20;;;5.80;99.90;;;;;;5055487;28;20491;-93
2022/11/29 06:32:49;;;;;;;0.40;0.35;;;6.60;99.90;;;;;;5039793;28;20051;-92
2022/11/29 06:36:16;;;;;;;0.43;0.43;;;6.60;99.90;;;;;;5052938;28;20056;-94
2022/11/29 06:38:52;;;;;;;0.35;0.17;;;5.80;99.90;;;;;;5055544;28;20045;-92
2022/11/29 06:41:51;;;;;;;2.08;1.38;;;6.60;99.90;;;;;;5023605;28;20546;-92
2022/11/29 06:44:47;;;;;;;;;;;;;;;;;;;;;
2022/11/29 06:47:48;;;;;;;0.10;0.10;;;6.50;99.90;;;;;;5056108;28;20049;-90
2022/11/29 06:50:46;;;;;;;0.50;0.28;;;6.50;99.90;;;;;;5054756;28;20045;-89
2022/11/29 06:53:56;;;;;;;0.20;0.10;;;6.50;99.90;;;;;;5039684;28;20057;-91
2022/11/29 06:56:39;;;;;;;0.30;0.10;;;6.50;99.90;;;;;;5038371;28;20095;-88
2022/11/29 06:59:31;;;;;;;0.30;0.30;;;6.50;99.90;;;;;;5037986;28;20056;-87
2022/11/29 07:02:34;;;;;;;0.95;0.30;;;6.50;99.90;;;;;;5037657;28;20534;-86
2022/11/29 07:05:18;;;;;;;0.57;0.55;;;6.50;99.90;;;;;;5054239;28;20490;-87
2022/11/29 07:07:45;;;;;;;0.57;0.28;;;6.50;99.90;;;;;;5037776;28;20558;-89
2022/11/29 07:10:19;;;;;;;1.55;0.35;;;6.50;99.90;;;;;;5037632;28;20088;-89
2022/11/29 07:12:47;;;;;;;0.10;0.10;;;6.50;99.90;;;;;;5037901;28;20074;-87
2022/11/29 07:15:18;;;;;;;0.25;0.25;;;6.50;99.90;;;;;;5053268;28;20131;-89
2022/11/29 07:18:12;;;;;;;1.15;0.45;;;6.50;99.90;;;;;;5038166;28;20040;-90
2022/11/29 07:21:01;;;;;;;0.98;0.47;;;6.50;99.90;;;;;;5054615;28;20142;-89
2022/11/29 07:23:53;;;;;;;0.38;0.20;;;6.50;99.90;;;;;;5038384;28;20059;-88
2022/11/29 07:26:36;;;;;;;0.22;0.22;;;6.50;99.90;;;;;;5055546;28;20056;-90
2022/11/29 07:29:38;;;;;;;0.20;0.20;;;6.60;99.90;;;;;;5037805;28;20051;-87
2022/11/29 07:32:19;;;;;;;0.65;0.20;;;5.40;99.90;;;;;;5054388;28;20471;-87
2022/11/29 07:34:57;;;;;;;0.77;0.25;;;6.50;99.90;;;;;;5038205;28;20060;-85
2022/11/29 07:37:22;;;;;;;;;;;6.40;99.90;;;;;;5038542;28;20387;-85
2022/11/29 07:39:48;;;;;;;0.00;0.00;;;6.40;99.90;;;;;;5054782;28;19921;-85
2022/11/29 07:42:32;;;;;;;0.03;0.03;;;6.50;99.90;;;;;;5054544;28;20048;-84
2022/11/29 07:45:21;;;;;;;0.00;0.00;;;6.40;99.90;;;;;;5037898;28;20055;-86
2022/11/29 07:47:50;;;;;;;1.33;0.55;;;6.50;99.90;;;;;;5038331;28;20094;-87
2022/11/29 07:50:16;;;;;;;0.43;0.25;;;6.50;99.90;;;;;;5037824;28;20219;-84
2022/11/29 07:52:51;;;;;;;0.67;0.53;;;6.50;99.90;;;;;;5021526;28;20518;-84
2022/11/29 07:55:25;;;;;;;0.00;0.00;;;7.90;99.90;;;;;;5037822;28;20124;-85
2022/11/29 07:57:51;;;;;;;0.10;0.10;;;6.50;99.90;;;;;;5037860;28;20102;-85
2022/11/29 08:00:18;;;;;;;0.00;0.00;;;6.50;99.90;;;;;;5021293;28;20293;-88
2022/11/29 08:02:48;;;;;;;0.30;0.25;;;6.50;99.90;;;;;;5054865;28;20045;-85
2022/11/29 08:05:14;;;;;;;0.13;0.13;;;6.50;99.90;;;;;;5037757;28;20041;-85
2022/11/29 08:07:40;;;;;;;0.00;0.00;;;6.10;99.90;;;;;;5054132;28;20051;-85
2022/11/29 08:10:11;;;;;;;3.13;0.47;;;6.50;99.90;;;;;;5021205;28;20083;-84
2022/11/29 08:12:42;;;;;;;0.22;0.22;;;6.50;99.90;;;;;;5038292;28;20095;-85
2022/11/29 08:15:11;;;;;;;1.88;0.70;;;8.00;99.90;;;;;;5041132;28;20127;-86
2022/11/29 08:17:38;;;;;;;0.63;0.20;;;6.50;99.90;;;;;;5041545;28;20056;-85
2022/11/29 08:20:04;;;;;;;;;;;6.60;99.90;;;;;;5041285;28;20048;-85
2022/11/29 08:22:34;;;;;;;0.00;0.00;;;6.60;99.90;;;;;;5024998;28;19928;-84
2022/11/29 08:25:03;;;;;;;1.38;0.30;;;6.60;99.90;;;;;;5041166;28;20060;-84
2022/11/29 08:27:28;;;;;;;0.70;0.20;;;6.60;99.90;;;;;;5041537;28;20044;-85
2022/11/29 08:29:54;;;;;;;0.70;0.70;;;6.60;99.90;;;;;;5058030;28;20123;-85
2022/11/29 08:32:22;;;;;;;0.87;0.47;;;6.60;99.90;;;;;;5057633;28;20387;-84
2022/11/29 08:34:48;;;;;;;0.43;0.43;;;6.70;99.90;;;;;;5041409;28;20051;-85
2022/11/29 08:37:14;;;;;;;0.30;0.30;;;7.40;99.90;;;;;;5024588;28;20049;-85
2022/11/29 08:39:40;;;;;;;1.70;0.10;;;6.60;99.90;;;;;;5041376;28;20103;-84
2022/11/29 08:42:05;;;;;;;0.00;0.00;;;6.70;99.90;;;;;;5040774;28;20048;-85
2022/11/29 08:44:31;;;;;;;0.33;0.20;;;5.90;99.90;;;;;;5041098;28;20106;-89
2022/11/29 08:55:14;;;;;;;0.63;0.20;;;6.10;99.90;;;;;;5056847;28;20048;-87
2022/11/29 08:57:42;;;;;;;3.50;0.40;;;6.70;99.90;;;;;;5040586;28;20076;-91
2022/11/29 09:00:13;;;;;;;0.20;0.20;;;7.10;99.90;;;;;;5044492;28;20127;-87
2022/11/29 09:02:41;;;;;;;2.97;0.75;;;6.00;99.90;;;;;;5023696;28;20130;-86
2022/11/29 09:05:13;;;;;;;0.08;0.08;;;6.80;99.90;;;;;;5024552;28;20063;-90
2022/11/29 09:07:45;;;;;;;0.22;0.22;;;6.80;99.90;;;;;;5024970;28;20060;-87
2022/11/29 09:10:13;;;;;;;0.10;0.10;;;5.70;99.90;;;;;;5056980;28;20049;-87
2022/11/29 09:12:53;;;;;;;;;;;;;;;;;;;;;
2022/11/29 09:15:26;;;;;;;0.28;0.20;;;6.90;99.90;;;;;;5056119;28;20056;-87
2022/11/29 09:18:00;;;;;;;0.43;0.20;;;6.90;99.90;;;;;;5056902;28;20051;-86
2022/11/29 09:20:28;;;;;;;0.50;0.28;;;7.20;99.90;;;;;;5039830;28;20087;-86
2022/11/29 09:22:55;;;;;;;0.52;0.22;;;6.90;99.90;;;;;;5040928;28;20059;-87
2022/11/29 09:25:24;;;;;;;2.40;0.45;;;6.90;99.90;;;;;;5038789;28;20499;-88
2022/11/29 09:27:55;;;;;;;0.20;0.20;;;7.00;99.90;;;;;;5042891;28;20052;-87
2022/11/29 09:30:29;;;;;;;0.22;0.20;;;6.90;99.90;;;;;;5024077;28;20047;-87
2022/11/29 09:33:02;;;;;;;1.95;0.43;;;7.20;99.90;;;;;;5040646;28;20048;-88
2022/11/29 09:35:32;;;;;;;0.65;0.10;;;7.00;99.90;;;;;;5024703;28;20086;-88
2022/11/29 09:38:00;;;;;;;0.32;0.15;;;7.00;99.90;;;;;;5040845;28;20399;-87
2022/11/29 09:40:52;;;;;;;0.98;0.47;;;7.10;99.90;;;;;;5040115;28;20052;-86
2022/11/29 09:43:29;;;;;;;0.55;0.43;;;8.00;99.90;;;;;;5039670;28;20479;-88
2022/11/29 09:46:32;;;;;;;0.20;0.20;;;7.70;99.90;;;;;;5039921;28;20520;-88
2022/11/29 09:49:17;;;;;;;0.73;0.43;;;7.10;99.90;;;;;;5056514;28;20063;-87
2022/11/29 09:52:05;;;;;;;1.92;0.47;;;6.40;99.90;;;;;;5057044;28;20056;-88
2022/11/29 09:55:11;;;;;;;0.10;0.10;;;7.20;99.90;;;;;;5039455;28;20058;-88
2022/11/29 09:57:46;;;;;;;0.38;0.10;;;7.20;99.90;;;;;;5007066;28;20052;-87
2022/11/29 10:00:18;;;;;;;0.70;0.30;;;7.30;99.90;;;;;;5039646;28;20048;-87
2022/11/29 10:03:00;;;;;;;0.57;0.43;;;7.30;99.90;;;;;;5039437;28;20048;-87
2022/11/29 10:05:43;;;;;;;2.63;0.25;;;7.20;99.90;;;;;;5055615;28;20052;-87
2022/11/29 10:08:31;;;;;;;0.17;0.13;;;7.30;99.90;;;;;;5039239;28;20054;-87
2022/11/29 10:11:27;;;;;;;0.85;0.25;;;7.30;99.90;;;;;;5038951;28;20131;-86
2022/11/29 10:14:06;;;;;;;;;;;7.40;99.90;;;;;;5056447;28;20102;-88
2022/11/29 10:16:44;;;;;;;0.45;0.28;;;7.50;99.90;;;;;;5055594;28;19924;-88
2022/11/29 10:19:14;;;;;;;;;;;7.30;99.90;;;;;;5039795;28;20053;-88
2022/11/29 10:22:09;;;;;;;0.13;0.13;;;7.50;99.90;;;;;;5056214;28;19971;-88
2022/11/29 10:24:36;;;;;;;1.55;0.20;;;7.40;99.90;;;;;;5037698;28;20108;-88
2022/11/29 10:27:19;;;;;;;0.63;0.10;;;7.00;99.90;;;;;;5039224;28;20053;-87
2022/11/29 10:29:50;;;;;;;0.17;0.10;;;7.40;99.90;;;;;;5039490;28;20051;-88
2022/11/29 10:32:23;;;;;;;0.00;0.00;;;7.40;99.90;;;;;;5038995;28;20048;-88
2022/11/29 10:34:49;;;;;;;0.52;0.52;;;7.50;99.90;;;;;;5055694;28;20051;-88
2022/11/29 10:37:23;;;;;;;0.22;0.22;;;7.60;99.90;;;;;;5038701;28;20088;-88
2022/11/29 10:40:00;;;;;;;1.45;0.60;;;7.50;99.90;;;;;;5038802;28;20558;-87
2022/11/29 10:42:51;;;;;;;0.40;0.40;;;7.70;99.90;;;;;;5055117;28;20445;-88
2022/11/29 10:45:56;;;;;;;0.20;0.17;;;7.60;99.90;;;;;;5039112;28;20063;-87
2022/11/29 10:48:30;;;;;;;0.22;0.15;;;7.70;99.90;;;;;;5022773;28;20060;-88
2022/11/29 10:51:13;;;;;;;0.28;0.20;;;7.70;99.90;;;;;;5038397;28;20048;-91
2022/11/29 10:53:39;;;;;;;1.98;0.50;;;7.60;99.90;;;;;;5037844;28;20495;-87
2022/11/29 10:56:15;;;;;;;1.17;0.43;;;7.10;99.90;;;;;;5055367;28;20053;-87
2022/11/29 10:59:02;;;;;;;0.10;0.10;;;7.70;99.90;;;;;;5054907;28;20127;-86
2022/11/29 11:01:30;;;;;;;0.25;0.25;;;7.70;99.90;;;;;;5038235;28;20049;-86
2022/11/29 11:03:58;;;;;;;0.10;0.10;;;7.80;99.90;;;;;;5055502;28;20088;-87
2022/11/29 11:06:55;;;;;;;0.63;0.50;;;7.80;99.90;;;;;;5038655;28;20206;-88
2022/11/29 11:09:35;;;;;;;0.65;0.30;;;7.80;99.90;;;;;;5038297;28;20037;-87
2022/11/29 11:12:19;;;;;;;0.32;0.32;;;7.80;99.90;;;;;;5038499;28;20557;-87
2022/11/29 11:14:50;;;;;;;0.30;0.13;;;7.70;99.90;;;;;;5038086;28;20048;-87
2022/11/29 11:17:28;;;;;;;0.03;0.03;;;7.70;99.90;;;;;;5054699;28;20494;-87
2022/11/29 11:20:07;;;;;;;0.30;0.30;;;7.80;99.90;;;;;;5038603;28;20517;-87
2022/11/29 11:22:34;;;;;;;2.65;0.30;;;7.70;99.90;;;;;;5038172;28;20391;-87
2022/11/29 11:25:22;;;;;;;0.80;0.38;;;7.80;99.90;;;;;;5038380;28;20048;-87
2022/11/29 11:27:48;;;;;;;0.35;0.35;;;7.70;99.90;;;;;;5037916;28;20114;-85
2022/11/29 11:30:30;;;;;;;0.07;0.07;;;7.70;99.90;;;;;;5038399;28;20040;-87
2022/11/29 11:33:07;;;;;;;0.13;0.10;;;7.70;99.90;;;;;;5038272;28;20053;-87
2022/11/29 11:35:34;;;;;;;0.28;0.28;;;9.20;99.90;;;;;;5037724;28;20076;-86
2022/11/29 11:38:02;;;;;;;0.63;0.63;;;7.80;99.90;;;;;;5038033;28;20053;-86
2022/11/29 11:40:29;;;;;;;0.88;0.47;;;7.80;99.90;;;;;;5037968;28;20056;-87
2022/11/29 11:42:58;;;;;;;0.52;0.50;;;7.90;99.90;;;;;;5038235;28;20414;-86
2022/11/29 11:45:33;;;;;;;0.68;0.55;;;7.90;99.90;;;;;;5054802;28;20051;-86
2022/11/29 11:48:12;;;;;;;0.20;0.10;;;7.60;99.90;;;;;;5039109;28;20040;-86
2022/11/29 11:50:59;;;;;;;0.65;0.35;;;7.90;99.90;;;;;;5058140;28;20048;-87
2022/11/29 11:53:34;;;;;;;0.33;0.27;;;8.00;99.90;;;;;;5041822;28;20088;-86
2022/11/29 11:56:13;;;;;;;0.52;0.50;;;8.00;99.90;;;;;;5058767;28;20345;-86
2022/11/29 11:58:42;;;;;;;0.20;0.20;;;8.10;99.90;;;;;;5041509;28;20123;-86
2022/11/29 12:01:11;;;;;;;0.10;0.10;;;8.10;99.90;;;;;;5041996;28;20099;-86
2022/11/29 12:04:01;;;;;;;0.70;0.50;;;8.10;99.90;;;;;;5043167;28;20394;-86
2022/11/29 12:06:35;;;;;;;0.75;0.73;;;7.10;99.90;;;;;;5042172;28;20044;-86
2022/11/29 12:09:07;;;;;;;0.47;0.40;;;7.30;99.90;;;;;;5058889;28;20393;-86
2022/11/29 12:12:05;;;;;;;0.40;0.15;;;8.30;99.90;;;;;;5041321;28;20123;-88
2022/11/29 12:14:49;;;;;;;0.30;0.30;;;8.20;99.90;;;;;;5041473;28;20434;-86
2022/11/29 12:17:30;;;;;;;0.50;0.30;;;8.30;99.90;;;;;;5041016;28;20048;-86
2022/11/29 12:20:14;;;;;;;0.17;0.17;;;8.30;99.90;;;;;;5058020;28;20095;-86
2022/11/29 12:22:52;;;;;;;0.35;0.35;;;9.50;99.90;;;;;;5041096;28;20514;-86
2022/11/29 12:25:30;;;;;;;0.22;0.15;;;8.30;99.90;;;;;;5058521;28;20056;-87
2022/11/29 12:27:59;;;;;;;0.82;0.32;;;8.30;99.90;;;;;;5041261;28;20040;-87
2022/11/29 12:30:25;;;;;;;0.45;0.40;;;8.40;99.90;;;;;;5041492;28;20043;-87
2022/11/29 12:33:32;;;;;;;0.65;0.47;;;8.40;99.90;;;;;;5041363;28;20048;-87
2022/11/29 12:36:25;;;;;;;0.38;0.35;;;8.50;99.90;;;;;;5062864;28;20074;-87
2022/11/29 12:39:28;;;;;;;0.25;0.20;;;8.50;99.90;;;;;;5071674;28;20041;-86
2022/11/29 12:42:19;;;;;;;1.27;0.38;;;8.50;99.90;;;;;;5052836;28;20116;-87
2022/11/29 12:45:15;;;;;;;0.40;0.35;;;8.40;99.90;;;;;;5052417;28;20044;-86
2022/11/29 12:47:50;;;;;;;0.20;0.10;;;8.50;99.90;;;;;;5074135;28;20064;-86
2022/11/29 12:50:40;;;;;;;0.65;0.65;;;8.50;99.90;;;;;;5071693;28;20048;-85
2022/11/29 12:53:44;;;;;;;0.57;0.30;;;8.50;99.90;;;;;;5068290;28;20084;-85
2022/11/29 12:56:30;;;;;;;0.55;0.30;;;8.50;99.90;;;;;;5063453;28;20047;-86
2022/11/29 12:59:08;;;;;;;0.80;0.17;;;8.50;99.90;;;;;;5050634;28;20058;-87
2022/11/29 13:01:54;;;;;;;0.22;0.22;;;8.60;99.90;;;;;;5061887;28;20052;-86
2022/11/29 13:04:47;;;;;;;0.32;0.30;;;9.10;99.90;;;;;;5043154;28;20048;-87
2022/11/29 13:07:43;;;;;;;0.47;0.20;;;8.60;99.90;;;;;;5041095;28;20088;-87
2022/11/29 13:10:52;;;;;;;0.20;0.20;;;8.60;99.90;;;;;;5041449;28;20072;-86
2022/11/29 13:13:37;;;;;;;0.57;0.57;;;8.50;99.90;;;;;;5058243;28;20052;-88
2022/11/29 13:16:18;;;;;;;0.75;0.57;;;8.50;99.90;;;;;;5040887;28;20055;-87
2022/11/29 13:19:14;;;;;;;0.30;0.30;;;8.50;99.90;;;;;;5041145;28;20137;-88
2022/11/29 13:21:58;;;;;;;0.90;0.85;;;8.50;99.90;;;;;;5041516;28;20044;-87
2022/11/29 13:24:31;;;;;;;0.65;0.35;;;8.40;99.90;;;;;;5041140;28;20048;-88
2022/11/29 13:27:06;;;;;;;0.40;0.40;;;8.50;99.90;;;;;;5041275;28;20040;-87
2022/11/29 13:29:35;;;;;;;0.82;0.38;;;8.40;99.90;;;;;;5057567;28;20128;-87
2022/11/29 13:32:05;;;;;;;0.98;0.43;;;8.20;99.90;;;;;;5008351;28;20091;-87
2022/11/29 13:34:38;;;;;;;0.98;0.32;;;8.40;99.90;;;;;;5040186;28;20098;-87
2022/11/29 13:37:27;;;;;;;0.20;0.20;;;8.30;99.90;;;;;;5040375;28;20048;-87
2022/11/29 13:40:16;;;;;;;0.20;0.20;;;8.20;99.90;;;;;;5039962;28;20475;-87
2022/11/29 13:43:06;;;;;;;0.05;0.03;;;8.30;99.90;;;;;;5040298;28;20056;-87
2022/11/29 13:45:52;;;;;;;0.30;0.30;;;8.20;99.90;;;;;;5056940;28;20044;-87
2022/11/29 13:48:27;;;;;;;0.45;0.38;;;8.30;99.90;;;;;;5041030;28;20077;-87
2022/11/29 13:50:55;;;;;;;0.40;0.40;;;7.70;99.90;;;;;;5040052;28;20076;-87
2022/11/29 13:53:24;;;;;;;0.68;0.50;;;8.30;99.90;;;;;;5039238;28;20458;-87
2022/11/29 13:56:01;;;;;;;1.90;0.40;;;8.30;99.90;;;;;;5056126;28;20055;-87
2022/11/29 13:58:26;;;;;;;0.77;0.20;;;8.20;99.90;;;;;;5040130;28;20080;-88
2022/11/29 14:01:07;;;;;;;0.40;0.40;;;8.20;99.90;;;;;;5039714;28;20084;-87
2022/11/29 14:03:46;;;;;;;0.65;0.17;;;8.10;99.90;;;;;;5056120;28;20106;-87
2022/11/29 14:06:14;;;;;;;2.00;0.82;;;8.20;99.90;;;;;;5039994;28;20063;-87
2022/11/29 14:08:44;;;;;;;0.30;0.30;;;8.20;99.90;;;;;;5056648;28;20467;-88
2022/11/29 14:11:13;;;;;;;0.40;0.40;;;8.10;99.90;;;;;;5038572;28;20075;-87
2022/11/29 14:14:16;;;;;;;0.38;0.30;;;8.10;99.90;;;;;;5039618;28;20059;-87
2022/11/29 14:16:42;;;;;;;1.00;0.32;;;8.00;99.90;;;;;;5026580;28;20060;-87
2022/11/29 14:19:26;;;;;;;0.80;0.63;;;7.90;99.90;;;;;;5026112;28;20079;-87